Time;durP1;ratioP1;P1;durP2;ratioP2;P2;SDS_P1;SDS_P2;PMS_P1;PMS_P2;Temp;Humidity;BMP_temperature;BMP_pressure;BME280_temperature;BME280_humidity;BME280_pressure;Samples;Min_cycle;Max_cycle;Signal;HPM_P1;HPM_P2
2022/08/28 00:01:29;;;;;;;4.50;1.70;;;;;;;24.16;42.79;101834.81;4983702;28;20275;-69
2022/08/28 00:03:54;;;;;;;4.40;1.73;;;;;;;24.14;42.60;101834.94;4975161;28;20034;-71
2022/08/28 00:06:20;;;;;;;5.20;2.17;;;;;;;24.19;42.50;101845.16;4983618;28;20108;-69
2022/08/28 00:08:45;;;;;;;4.90;2.10;;;;;;;24.20;42.30;101844.19;4983598;28;20034;-70
2022/08/28 00:11:11;;;;;;;6.63;2.25;;;;;;;24.17;42.46;101847.97;4970212;28;20085;-70
2022/08/28 00:13:36;;;;;;;6.05;2.22;;;;;;;24.18;42.62;101854.13;4970477;28;20034;-68
2022/08/28 00:16:02;;;;;;;5.30;2.22;;;;;;;24.12;42.13;101842.25;4976753;28;20113;-68
2022/08/28 00:18:28;;;;;;;4.75;2.28;;;;;;;24.12;42.34;101850.22;4983599;28;20433;-69
2022/08/28 00:20:54;;;;;;;4.13;1.98;;;;;;;24.07;42.40;101837.34;4980505;28;20094;-69
2022/08/28 00:23:20;;;;;;;5.80;2.40;;;;;;;24.14;42.29;101856.25;4980701;28;20038;-71
2022/08/28 00:25:46;;;;;;;5.50;2.13;;;;;;;24.15;42.12;101857.94;4977401;28;20033;-68
2022/08/28 00:28:12;;;;;;;5.45;2.13;;;;;;;24.12;42.45;101842.25;4963799;28;20051;-70
2022/08/28 00:30:45;;;;;;;5.57;2.03;;;;;;;24.12;42.25;101852.88;4967636;28;20531;-68
2022/08/28 00:33:24;;;;;;;4.78;2.20;;;;;;;24.09;42.65;101845.19;4983068;28;20076;-70
2022/08/28 00:35:50;;;;;;;5.22;2.33;;;;;;;24.11;42.28;101851.19;4972980;28;20125;-71
2022/08/28 00:38:18;;;;;;;5.68;2.38;;;;;;;24.10;42.52;101854.84;4978301;28;20034;-69
2022/08/28 00:40:46;;;;;;;5.00;2.15;;;;;;;24.11;42.54;101853.03;4977227;28;20077;-67
2022/08/28 00:43:41;;;;;;;6.07;2.38;;;;;;;24.06;42.60;101848.13;4963672;28;20114;-68
2022/08/28 00:46:12;;;;;;;6.28;2.50;;;;;;;24.04;42.41;101848.25;4966595;28;20964;-68
2022/08/28 00:48:38;;;;;;;5.90;2.40;;;;;;;24.05;42.31;101857.94;4978570;28;20052;-71
2022/08/28 00:53:48;;;;;;;6.75;2.65;;;;;;;24.00;42.74;101846.84;4963370;28;20041;-68
2022/08/28 00:56:17;;;;;;;6.93;2.78;;;;;;;24.00;42.62;101851.34;4968716;28;20038;-68
2022/08/28 00:58:44;;;;;;;5.57;2.30;;;;;;;24.01;42.27;101859.19;4967178;28;20027;-69
2022/08/28 01:01:10;;;;;;;5.70;2.47;;;;;;;23.99;42.18;101852.31;4979960;28;20022;-68
2022/08/28 01:03:36;;;;;;;7.75;2.80;;;;;;;23.97;42.44;101854.28;4974094;28;20148;-69
2022/08/28 01:06:01;;;;;;;4.82;2.20;;;;;;;23.93;42.23;101861.72;4982846;28;20137;-70
2022/08/28 01:08:29;;;;;;;4.75;2.35;;;;;;;23.96;42.27;101864.09;4973560;28;20484;-71
2022/08/28 01:10:55;;;;;;;5.70;2.88;;;;;;;23.94;42.55;101865.19;4967249;28;20451;-71
2022/08/28 01:13:22;;;;;;;5.50;2.30;;;;;;;23.94;42.65;101867.88;4963086;28;20026;-68
2022/08/28 01:15:50;;;;;;;5.68;2.40;;;;;;;23.91;42.69;101866.34;4973243;28;20074;-68
2022/08/28 01:18:17;;;;;;;5.68;2.60;;;;;;;23.93;42.31;101867.03;4969616;28;20165;-69
2022/08/28 01:20:49;;;;;;;6.57;2.60;;;;;;;23.89;42.46;101863.81;4974594;28;20811;-69
2022/08/28 01:23:44;;;;;;;7.25;2.85;;;;;;;23.83;42.75;101856.38;4966056;28;20030;-68
2022/08/28 01:26:10;;;;;;;6.15;2.67;;;;;;;23.90;42.22;101862.81;4970093;28;20038;-68
2022/08/28 01:28:35;;;;;;;5.43;2.42;;;;;;;23.89;42.64;101862.94;4981414;28;20068;-68
2022/08/28 01:31:00;;;;;;;5.40;2.60;;;;;;;23.89;42.56;101866.47;4963084;28;20026;-69
2022/08/28 01:33:26;;;;;;;5.80;2.47;;;;;;;23.87;42.77;101863.09;4981739;28;20048;-68
2022/08/28 01:35:51;;;;;;;5.55;2.40;;;;;;;23.87;42.61;101863.09;4982276;28;20310;-69
2022/08/28 01:38:16;;;;;;;5.80;2.50;;;;;;;23.88;42.30;101869.28;4973787;28;20039;-70
2022/08/28 01:40:46;;;;;;;6.20;2.47;;;;;;;23.87;42.16;101868.41;4968750;28;20039;-68
2022/08/28 01:43:18;;;;;;;6.35;2.63;;;;;;;23.84;42.64;101866.03;4962868;28;20042;-69
2022/08/28 01:45:47;;;;;;;5.85;2.47;;;;;;;23.84;42.45;101871.34;4962965;28;20039;-70
2022/08/28 01:48:14;;;;;;;5.72;2.67;;;;;;;23.84;42.58;101875.84;4962181;28;20280;-71
2022/08/28 01:50:40;;;;;;;6.05;2.72;;;;;;;23.81;42.48;101874.25;4962663;28;20110;-69
2022/08/28 01:53:06;;;;;;;5.20;2.67;;;;;;;23.82;42.86;101869.78;4962624;28;20038;-69
2022/08/28 01:55:34;;;;;;;6.15;2.55;;;;;;;23.82;42.53;101873.28;4967188;28;20128;-69
2022/08/28 01:58:01;;;;;;;5.90;2.70;;;;;;;23.82;42.74;101881.28;4981508;28;20034;-68
2022/08/28 02:00:27;;;;;;;5.70;2.80;;;;;;;23.79;42.40;101881.53;4967853;28;20030;-69
2022/08/28 02:02:55;;;;;;;7.28;2.75;;;;;;;23.81;42.43;101879.56;4967918;28;20042;-69
2022/08/28 02:05:21;;;;;;;6.35;2.67;;;;;;;23.77;42.94;101874.69;4974149;28;20113;-68
2022/08/28 02:07:47;;;;;;;6.18;2.88;;;;;;;23.76;42.64;101875.66;4981785;28;20997;-67
2022/08/28 02:10:12;;;;;;;5.90;3.10;;;;;;;23.78;42.56;101879.84;4981809;28;20522;-70
2022/08/28 02:12:37;;;;;;;6.28;2.80;;;;;;;23.79;42.44;101886.88;4977785;28;20121;-70
2022/08/28 02:15:06;;;;;;;7.22;2.72;;;;;;;23.79;42.45;101880.72;4975913;28;20118;-69
2022/08/28 02:17:31;;;;;;;6.90;2.50;;;;;;;23.76;42.85;101886.31;4981604;28;20033;-70
2022/08/28 02:19:58;;;;;;;5.60;2.47;;;;;;;23.78;42.93;101890.50;4978388;28;20460;-69
2022/08/28 02:22:23;;;;;;;5.80;2.40;;;;;;;23.74;42.90;101889.09;4963773;28;20035;-69
2022/08/28 02:24:48;;;;;;;6.28;2.65;;;;;;;23.71;42.59;101882.22;4975403;28;20049;-70
2022/08/28 02:27:13;;;;;;;6.85;2.67;;;;;;;23.69;42.96;101886.84;4981442;28;20113;-69
2022/08/28 02:29:39;;;;;;;7.33;2.83;;;;;;;23.72;43.11;101891.06;4981639;28;20644;-67
2022/08/28 02:32:05;;;;;;;6.28;2.70;;;;;;;23.69;42.87;101886.84;4981591;28;20299;-69
2022/08/28 02:34:32;;;;;;;6.05;2.90;;;;;;;23.70;42.78;101887.69;4970844;28;20038;-68
2022/08/28 02:36:57;;;;;;;6.72;2.58;;;;;;;23.69;42.91;101886.03;4966081;28;20109;-67
2022/08/28 02:39:23;;;;;;;7.03;2.95;;;;;;;23.67;42.49;101896.78;4962018;28;20523;-68
2022/08/28 02:41:48;;;;;;;7.25;2.88;;;;;;;23.69;42.97;101901.97;4980248;28;20038;-69
2022/08/28 02:44:14;;;;;;;6.28;2.78;;;;;;;23.66;42.75;101894.28;4966109;28;20149;-68
2022/08/28 02:46:39;;;;;;;5.40;2.40;;;;;;;23.67;42.74;101894.13;4982576;28;20038;-67
2022/08/28 02:49:04;;;;;;;6.03;2.83;;;;;;;23.64;43.03;101885.56;4971800;28;20300;-69
2022/08/28 02:51:32;;;;;;;6.43;2.70;;;;;;;23.65;42.74;101897.91;4966587;28;20097;-69
2022/08/28 02:53:57;;;;;;;5.85;2.80;;;;;;;23.64;42.99;101896.19;4970102;28;20054;-68
2022/08/28 02:56:23;;;;;;;6.78;2.70;;;;;;;23.62;42.75;101896.34;4961763;28;20030;-69
2022/08/28 02:58:48;;;;;;;6.35;2.80;;;;;;;23.61;42.69;101888.53;4978144;28;20411;-70
2022/08/28 03:01:14;;;;;;;6.68;3.15;;;;;;;23.55;42.86;101890.72;4984978;28;20033;-68
2022/08/28 03:03:40;;;;;;;5.32;2.38;;;;;;;23.51;42.71;101886.66;4984467;28;20388;-70
2022/08/28 03:06:07;;;;;;;6.45;2.65;;;;;;;23.55;42.59;101888.06;4984719;28;20057;-68
2022/08/28 03:08:33;;;;;;;5.32;2.33;;;;;;;23.49;42.89;101885.09;4984933;28;20074;-68
2022/08/28 03:10:59;;;;;;;5.53;2.40;;;;;;;23.54;43.14;101893.53;4971264;28;20411;-68
2022/08/28 03:13:25;;;;;;;5.95;2.67;;;;;;;23.53;42.64;101895.34;4972831;28;20070;-68
2022/08/28 03:15:50;;;;;;;6.05;2.58;;;;;;;23.54;43.08;101894.38;4972625;28;20502;-69
2022/08/28 03:18:17;;;;;;;5.60;2.40;;;;;;;23.53;42.99;101895.34;4979644;28;20062;-70
2022/08/28 03:20:43;;;;;;;6.07;2.70;;;;;;;23.52;42.94;101890.16;4977498;28;20060;-68
2022/08/28 03:23:27;;;;;;;5.68;2.17;;;;;;;23.51;42.97;101905.28;4967243;28;20066;-70
2022/08/28 03:25:55;;;;;;;6.28;2.53;;;;;;;23.51;43.02;101905.28;4971255;28;20066;-69
2022/08/28 03:28:20;;;;;;;6.28;2.58;;;;;;;23.50;43.02;101905.44;4979745;28;20055;-68
2022/08/28 03:30:46;;;;;;;5.05;2.33;;;;;;;23.50;42.74;101905.44;4976524;28;20537;-69
2022/08/28 03:33:11;;;;;;;4.78;2.17;;;;;;;23.50;43.26;101908.91;4970751;28;20495;-69
2022/08/28 03:35:36;;;;;;;6.70;2.73;;;;;;;23.50;43.10;101908.91;4965217;28;20113;-69
2022/08/28 03:38:03;;;;;;;5.70;2.57;;;;;;;23.46;42.92;101901.34;4965471;28;20292;-70
2022/08/28 03:40:29;;;;;;;5.55;2.58;;;;;;;23.47;42.91;101916.34;4983757;28;20264;-71
2022/08/28 03:42:54;;;;;;;6.68;2.53;;;;;;;23.45;43.18;101918.25;4981747;28;20026;-70
2022/08/28 03:45:21;;;;;;;5.43;2.53;;;;;;;23.40;43.29;101913.38;4984451;28;20399;-68
2022/08/28 03:47:46;;;;;;;5.43;2.28;;;;;;;23.42;43.44;101915.91;4974606;28;20048;-69
2022/08/28 03:50:12;;;;;;;5.97;2.57;;;;;;;23.41;43.34;101916.88;4983370;28;20121;-68
2022/08/28 03:52:39;;;;;;;6.22;2.58;;;;;;;23.40;43.27;101921.34;4968449;28;20261;-68
2022/08/28 03:55:07;;;;;;;4.97;2.13;;;;;;;23.39;43.09;101921.50;4973683;28;20038;-68
2022/08/28 03:57:34;;;;;;;6.28;2.60;;;;;;;23.35;43.10;101916.44;4976045;28;20031;-71
2022/08/28 03:59:59;;;;;;;5.15;2.35;;;;;;;23.36;43.43;101918.09;4964444;28;20057;-70
2022/08/28 04:02:25;;;;;;;5.68;2.38;;;;;;;23.35;43.45;101918.22;4964395;28;20474;-69
2022/08/28 04:04:50;;;;;;;6.20;2.45;;;;;;;23.36;43.54;101923.41;4964604;28;20034;-68
2022/08/28 04:07:17;;;;;;;5.13;2.70;;;;;;;23.34;43.32;101925.38;4977118;28;20459;-69
2022/08/28 04:09:42;;;;;;;5.20;2.40;;;;;;;23.32;42.99;101923.81;4978506;28;20092;-69
2022/08/28 04:12:08;;;;;;;5.40;2.27;;;;;;;23.31;43.19;101924.81;4978878;28;20034;-72
2022/08/28 04:14:34;;;;;;;6.10;2.70;;;;;;;23.30;43.58;101921.28;4979296;28;20727;-68
2022/08/28 04:16:59;;;;;;;5.15;2.30;;;;;;;23.27;43.23;101915.41;4963755;28;20471;-69
2022/08/28 04:19:25;;;;;;;6.60;2.80;;;;;;;23.29;43.14;101922.28;4964075;28;20027;-68
2022/08/28 04:21:50;;;;;;;5.95;2.17;;;;;;;23.23;43.19;101912.16;4969180;28;20022;-68
2022/08/28 04:24:15;;;;;;;5.53;2.40;;;;;;;23.27;43.35;101921.53;4979869;28;20657;-69
2022/08/28 04:26:40;;;;;;;6.10;2.43;;;;;;;23.25;43.31;101925.34;4971474;28;20026;-67
2022/08/28 04:29:06;;;;;;;5.32;2.20;;;;;;;23.23;43.33;101921.97;4974650;28;20938;-68
2022/08/28 04:31:32;;;;;;;5.57;2.17;;;;;;;23.24;43.28;101934.28;4968169;28;20030;-68
2022/08/28 04:34:01;;;;;;;6.20;2.63;;;;;;;23.21;43.57;101930.09;4964017;28;20034;-71
2022/08/28 04:36:27;;;;;;;6.25;2.30;;;;;;;23.20;43.38;101928.38;4978780;28;20026;-68
2022/08/28 04:38:53;;;;;;;5.32;2.15;;;;;;;23.22;43.61;101936.22;4972941;28;20371;-70
2022/08/28 04:41:19;;;;;;;5.50;2.50;;;;;;;23.22;43.16;101934.41;4969316;28;20040;-68
2022/08/28 04:43:44;;;;;;;7.88;2.67;;;;;;;23.17;43.79;101926.81;4979402;28;20030;-69
2022/08/28 04:46:12;;;;;;;4.95;2.25;;;;;;;23.13;43.56;101925.41;4982780;28;21069;-70
2022/08/28 04:48:38;;;;;;;5.30;2.45;;;;;;;23.17;43.66;101934.81;4973513;28;20023;-68
2022/08/28 04:51:07;;;;;;;6.72;2.50;;;;;;;23.16;43.20;101933.13;4963365;28;20486;-68
2022/08/28 04:53:33;;;;;;;5.25;2.10;;;;;;;23.20;43.75;101943.50;4977514;28;20026;-67
2022/08/28 04:55:59;;;;;;;5.25;2.28;;;;;;;23.16;43.55;101932.28;4972667;28;20026;-68
2022/08/28 04:58:26;;;;;;;4.65;2.13;;;;;;;23.18;43.54;101940.97;4969818;28;20031;-69
2022/08/28 05:00:53;;;;;;;5.82;2.00;;;;;;;23.16;43.73;101934.94;4966592;28;21013;-68
2022/08/28 05:03:19;;;;;;;6.20;2.10;;;;;;;23.18;43.27;101938.31;4981701;28;20459;-69
2022/08/28 05:05:47;;;;;;;5.78;2.55;;;;;;;23.15;43.38;101936.75;4977460;28;20022;-68
2022/08/28 05:08:14;;;;;;;6.97;2.42;;;;;;;23.16;43.32;101949.09;4973979;28;20129;-68
2022/08/28 05:10:41;;;;;;;6.05;2.42;;;;;;;23.18;43.28;101951.63;4973925;28;20039;-68
2022/08/28 05:13:09;;;;;;;6.25;2.42;;;;;;;23.15;43.28;101949.22;4979879;28;20045;-70
2022/08/28 05:15:39;;;;;;;4.85;2.30;;;;;;;23.14;43.32;101951.03;4981920;28;20041;-71
2022/08/28 05:18:04;;;;;;;5.53;2.20;;;;;;;23.15;43.06;101959.84;4976641;28;20057;-70
2022/08/28 05:20:35;;;;;;;6.35;2.33;;;;;;;23.14;43.32;101959.00;4966185;28;20359;-68
2022/08/28 05:23:00;;;;;;;4.90;2.30;;;;;;;23.15;43.58;101959.84;4974870;28;20030;-68
2022/08/28 05:25:26;;;;;;;6.05;2.58;;;;;;;23.16;43.35;101967.69;4979078;28;20045;-68
2022/08/28 05:27:51;;;;;;;5.23;2.30;;;;;;;23.18;43.57;101967.56;4970331;28;20058;-68
2022/08/28 05:30:16;;;;;;;5.33;2.13;;;;;;;23.17;43.41;101972.03;4970688;28;20030;-69
2022/08/28 05:32:42;;;;;;;4.80;2.30;;;;;;;23.18;43.06;101972.91;4975579;28;20272;-67
2022/08/28 05:35:07;;;;;;;4.90;2.20;;;;;;;23.17;43.39;101968.53;4971334;28;20328;-69
2022/08/28 05:37:32;;;;;;;5.38;2.28;;;;;;;23.21;43.45;101977.09;4981359;28;20048;-68
2022/08/28 05:39:59;;;;;;;4.60;2.13;;;;;;;23.16;43.61;101969.50;4978376;28;20049;-69
2022/08/28 05:42:25;;;;;;;4.63;2.13;;;;;;;23.21;43.00;101977.09;4969502;28;20430;-69
2022/08/28 05:44:50;;;;;;;4.63;2.10;;;;;;;23.22;43.42;101973.47;4973996;28;20057;-69
2022/08/28 05:47:16;;;;;;;4.95;2.25;;;;;;;23.21;43.45;101975.28;4973645;28;20459;-68
2022/08/28 05:49:42;;;;;;;4.95;2.17;;;;;;;23.20;43.20;101972.75;4980749;28;20030;-68
2022/08/28 05:52:07;;;;;;;5.00;2.10;;;;;;;23.20;43.38;101978.09;4965192;28;20328;-68
2022/08/28 05:54:33;;;;;;;5.60;2.30;;;;;;;23.19;43.15;101977.22;4966605;28;20378;-70
2022/08/28 05:57:02;;;;;;;4.95;1.95;;;;;;;23.17;43.41;101980.00;4949370;28;20566;-69
2022/08/28 05:59:27;;;;;;;5.40;2.05;;;;;;;23.20;43.01;101978.91;4966579;28;20089;-69
2022/08/28 06:01:53;;;;;;;5.63;2.33;;;;;;;23.20;43.37;101981.56;4963063;28;20042;-68
2022/08/28 06:04:24;;;;;;;5.22;2.22;;;;;;;23.22;43.09;101984.09;4976978;28;20788;-71
2022/08/28 06:06:49;;;;;;;5.97;2.13;;;;;;;23.21;43.23;101985.06;4982276;28;20065;-68
2022/08/28 06:09:19;;;;;;;5.65;2.45;;;;;;;23.22;42.88;101989.41;4982332;28;20061;-70
2022/08/28 06:11:46;;;;;;;4.22;1.85;;;;;;;23.22;43.04;101992.91;4970183;28;20137;-69
2022/08/28 06:14:13;;;;;;;4.68;2.10;;;;;;;23.22;43.09;101990.25;4968345;28;20129;-69
2022/08/28 06:16:41;;;;;;;6.35;2.67;;;;;;;23.23;43.19;101996.44;4962851;28;20106;-67
2022/08/28 06:19:08;;;;;;;5.50;2.40;;;;;;;23.22;43.70;101992.06;4971004;28;20077;-68
2022/08/28 06:21:35;;;;;;;5.93;2.33;;;;;;;23.14;43.93;101984.75;4975095;28;20058;-67
2022/08/28 06:24:01;;;;;;;6.53;2.35;;;;;;;23.19;43.98;101987.84;4962525;28;20643;-68
2022/08/28 06:26:26;;;;;;;6.03;2.55;;;;;;;23.21;43.70;101993.91;4964849;28;20483;-70
2022/08/28 06:28:52;;;;;;;4.93;2.35;;;;;;;23.16;43.84;101996.09;4969132;28;20051;-68
2022/08/28 06:31:17;;;;;;;4.88;2.45;;;;;;;23.18;44.01;101992.34;4967114;28;20074;-69
2022/08/28 06:33:44;;;;;;;6.40;2.42;;;;;;;23.19;44.58;102001.16;4962319;28;20029;-67
2022/08/28 06:36:10;;;;;;;5.13;2.03;;;;;;;23.27;44.17;102001.34;4966075;28;20026;-66
2022/08/28 06:38:35;;;;;;;4.65;2.13;;;;;;;23.26;44.69;102001.50;4980476;28;20030;-68
2022/08/28 06:41:01;;;;;;;6.00;2.40;;;;;;;23.26;44.18;102002.31;4969222;28;20097;-70
2022/08/28 06:43:28;;;;;;;5.25;2.00;;;;;;;23.23;44.68;102007.91;4965667;28;20855;-68
2022/08/28 06:45:55;;;;;;;4.60;2.05;;;;;;;23.27;44.86;102009.31;4981116;28;20496;-67
2022/08/28 06:48:24;;;;;;;6.10;1.98;;;;;;;23.30;44.57;102016.19;4968402;28;20122;-69
2022/08/28 06:50:51;;;;;;;4.88;2.10;;;;;;;23.34;44.76;102017.63;4972482;28;20117;-68
2022/08/28 06:53:19;;;;;;;4.65;2.03;;;;;;;23.38;44.77;102016.38;4982514;28;20606;-70
2022/08/28 06:55:44;;;;;;;6.47;2.20;;;;;;;23.40;44.33;102019.78;4970790;28;20035;-68
2022/08/28 06:58:11;;;;;;;5.83;2.47;;;;;;;23.40;44.31;102008.28;4984598;28;20881;-68
2022/08/28 07:00:36;;;;;;;5.72;2.45;;;;;;;23.43;44.57;102008.88;4985175;28;20318;-70
2022/08/28 07:03:06;;;;;;;6.15;2.05;;;;;;;23.47;44.41;102004.13;4984568;28;20797;-69
2022/08/28 07:05:32;;;;;;;6.05;2.30;;;;;;;23.51;44.10;102013.50;4967337;28;20030;-69
2022/08/28 07:07:58;;;;;;;7.07;2.00;;;;;;;23.54;44.05;102014.09;4965743;28;20038;-69
2022/08/28 07:10:26;;;;;;;5.50;2.05;;;;;;;23.55;44.15;102013.13;4976566;28;20475;-68
2022/08/28 07:12:51;;;;;;;6.18;2.03;;;;;;;23.59;44.41;102011.06;4984478;28;20074;-68
2022/08/28 07:15:17;;;;;;;6.73;2.00;;;;;;;23.65;44.15;102018.47;4936811;28;20046;-68
2022/08/28 07:17:43;;;;;;;6.68;2.60;;;;;;;23.67;44.25;102015.69;4983538;28;20268;-68
2022/08/28 07:20:10;;;;;;;6.65;2.17;;;;;;;23.66;44.34;102009.53;4965210;28;20806;-68
2022/08/28 07:22:36;;;;;;;4.15;1.80;;;;;;;23.72;44.65;102018.81;4983134;28;20115;-72
2022/08/28 07:25:01;;;;;;;5.05;2.15;;;;;;;23.71;44.39;102012.63;4984420;28;20483;-73
2022/08/28 07:27:26;;;;;;;5.45;2.10;;;;;;;23.62;44.17;102021.41;4975805;28;20100;-74
2022/08/28 07:29:52;;;;;;;5.78;2.30;;;;;;;23.45;44.88;102014.03;4983968;28;20481;-74
2022/08/28 07:32:20;;;;;;;5.75;1.92;;;;;;;23.44;45.21;102018.53;4972741;28;20026;-75
2022/08/28 07:34:46;;;;;;;6.32;2.17;;;;;;;23.47;45.44;102023.59;4971171;28;20041;-78
2022/08/28 07:37:11;;;;;;;6.15;2.30;;;;;;;23.58;45.40;102027.16;4976404;28;20034;-76
2022/08/28 07:39:37;;;;;;;4.82;1.92;;;;;;;23.64;44.71;102023.94;4980174;28;20565;-77
2022/08/28 07:42:02;;;;;;;6.45;2.25;;;;;;;23.69;44.63;102027.06;4963986;28;20382;-77
2022/08/28 07:47:13;;;;;;;7.40;2.05;;;;;;;23.87;44.18;102030.78;4968680;28;20138;-74
2022/08/28 07:49:39;;;;;;;5.47;1.95;;;;;;;23.90;43.76;102030.53;4966775;28;20386;-78
2022/08/28 07:52:06;;;;;;;5.28;2.15;;;;;;;23.98;43.78;102034.34;4974426;28;20453;-76
2022/08/28 07:54:32;;;;;;;6.13;2.13;;;;;;;23.93;43.85;102034.75;4972054;28;20034;-77
2022/08/28 07:56:57;;;;;;;4.63;1.77;;;;;;;24.00;43.58;102045.69;4979964;28;20049;-76
2022/08/28 07:59:22;;;;;;;5.90;1.93;;;;;;;24.00;43.65;102041.22;4966432;28;20360;-74
2022/08/28 08:01:50;;;;;;;5.97;1.98;;;;;;;24.06;44.07;102040.66;4963871;28;20276;-77
2022/08/28 08:04:16;;;;;;;5.78;1.95;;;;;;;24.13;43.81;102042.78;4969272;28;20055;-71
2022/08/28 08:06:43;;;;;;;5.75;2.00;;;;;;;24.17;43.90;102047.72;4968963;28;20041;-74
2022/08/28 08:09:12;;;;;;;8.75;2.58;;;;;;;24.15;43.57;102035.50;4970254;28;20043;-73
2022/08/28 08:11:37;;;;;;;7.68;2.63;;;;;;;24.26;43.86;102049.56;4964541;28;20060;-75
2022/08/28 08:14:04;;;;;;;7.82;2.53;;;;;;;24.30;43.76;102054.63;4974863;28;20801;-76
2022/08/28 08:16:32;;;;;;;11.65;2.45;;;;;;;24.30;43.75;102047.47;4980334;28;20030;-74
2022/08/28 08:18:57;;;;;;;7.70;2.30;;;;;;;24.35;43.94;102055.88;4982807;28;20030;-74
2022/08/28 08:21:23;;;;;;;7.30;2.40;;;;;;;24.35;43.86;102047.06;4979156;28;20038;-76
2022/08/28 08:23:48;;;;;;;7.80;2.17;;;;;;;24.37;43.96;102056.59;4974819;28;20030;-75
2022/08/28 08:26:20;;;;;;;10.45;2.50;;;;;;;24.38;44.05;102057.44;4970540;28;21318;-76
2022/08/28 08:28:52;;;;;;;7.43;2.20;;;;;;;24.31;44.09;102051.81;4965815;28;20623;-77
2022/08/28 08:31:23;;;;;;;8.48;2.42;;;;;;;24.34;44.30;102056.88;4968540;28;20034;-78
2022/08/28 08:33:51;;;;;;;6.78;2.55;;;;;;;24.32;43.93;102057.97;4966615;28;20043;-78
2022/08/28 08:36:18;;;;;;;7.43;2.20;;;;;;;24.41;43.82;102066.00;4979917;28;20035;-77
2022/08/28 08:38:44;;;;;;;5.82;1.77;;;;;;;24.44;43.88;102059.56;4979063;28;20383;-77
2022/08/28 08:41:46;;;;;;;8.10;2.00;;;;;;;24.48;43.98;102066.28;4963194;28;20034;-77
2022/08/28 08:44:23;;;;;;;7.82;1.90;;;;;;;24.50;43.86;102066.16;4969981;28;20093;-77
2022/08/28 08:46:57;;;;;;;6.97;2.10;;;;;;;24.53;43.82;102052.53;4976189;28;20078;-78
2022/08/28 08:49:28;;;;;;;5.88;1.90;;;;;;;24.52;43.45;102049.06;4965791;28;20042;-78
2022/08/28 08:51:55;;;;;;;5.30;2.28;;;;;;;24.57;43.69;102054.00;4968453;28;20038;-75
2022/08/28 08:54:21;;;;;;;6.70;1.95;;;;;;;24.59;43.52;102058.22;4978113;28;20048;-73
2022/08/28 08:56:48;;;;;;;7.38;2.20;;;;;;;24.54;43.65;102049.75;4968528;28;20042;-74
2022/08/28 08:59:20;;;;;;;5.78;2.25;;;;;;;24.55;43.88;102054.09;4968843;28;20046;-79
2022/08/28 09:02:00;;;;;;;8.18;2.47;;;;;;;24.53;43.50;102050.75;4967920;28;20026;-78
2022/08/28 09:04:45;;;;;;;6.03;1.98;;;;;;;24.53;43.64;102042.75;4977496;28;20042;-79
2022/08/28 09:07:29;;;;;;;7.82;2.13;;;;;;;24.54;43.96;102043.59;4968296;28;20129;-78
2022/08/28 09:09:55;;;;;;;;;;;;;;;24.59;43.42;102054.69;4967829;28;20055;-75
2022/08/28 09:12:26;;;;;;;7.18;1.73;;;;;;;24.63;43.28;102050.78;4972494;28;19910;-81
2022/08/28 09:14:57;;;;;;;7.18;2.08;;;;;;;24.65;43.41;102059.47;4971376;28;20049;-77
2022/08/28 09:17:30;;;;;;;5.57;2.00;;;;;;;24.59;43.60;102057.34;4972721;28;20080;-74
2022/08/28 09:19:55;;;;;;;6.65;2.08;;;;;;;24.60;43.28;102057.22;4973955;28;20037;-76
2022/08/28 09:22:21;;;;;;;5.82;1.83;;;;;;;24.61;43.66;102060.75;4961561;28;20034;-72
2022/08/28 09:24:46;;;;;;;5.97;2.40;;;;;;;24.56;43.38;102055.84;4964739;28;20042;-73
2022/08/28 09:27:23;;;;;;;4.22;1.63;;;;;;;24.55;43.35;102054.09;4974826;28;20505;-73
2022/08/28 09:30:06;;;;;;;5.00;1.65;;;;;;;24.55;43.37;102051.44;4978712;28;20034;-75
2022/08/28 09:32:43;;;;;;;7.30;2.10;;;;;;;24.58;43.28;102053.03;4970622;28;20041;-74
2022/08/28 09:35:29;;;;;;;5.13;1.92;;;;;;;24.68;43.36;102048.53;4969134;28;20062;-74
2022/08/28 09:38:14;;;;;;;6.47;1.60;;;;;;;24.69;43.18;102036.03;4965891;28;21143;-77
2022/08/28 09:43:27;;;;;;;5.63;1.67;;;;;;;24.77;43.21;102047.72;4976119;28;20665;-76
2022/08/28 09:46:15;;;;;;;4.70;1.45;;;;;;;24.83;42.85;102053.44;4969950;28;20121;-74
2022/08/28 09:48:42;;;;;;;5.10;1.63;;;;;;;24.78;42.98;102044.06;4962511;28;20049;-75
2022/08/28 09:51:08;;;;;;;5.13;1.70;;;;;;;24.86;42.75;102048.66;4966004;28;20103;-74
2022/08/28 09:53:51;;;;;;;6.10;2.00;;;;;;;24.85;42.84;102036.34;4974707;28;20125;-73
2022/08/28 09:56:35;;;;;;;7.10;1.95;;;;;;;24.87;42.55;102042.38;4968325;28;20031;-70
2022/08/28 09:59:13;;;;;;;6.25;1.67;;;;;;;24.79;43.00;102036.91;4963045;28;20035;-76
2022/08/28 10:02:00;;;;;;;4.47;1.60;;;;;;;24.86;42.59;102059.34;4962642;28;20035;-76
2022/08/28 10:04:57;;;;;;;5.18;1.60;;;;;;;24.85;42.52;102054.16;4971238;28;20026;-76
2022/08/28 10:07:32;;;;;;;4.82;1.65;;;;;;;24.89;42.38;102066.22;4978108;28;20048;-76
2022/08/28 10:10:16;;;;;;;4.43;1.23;;;;;;;24.87;42.30;102060.19;4983257;28;20485;-73
2022/08/28 10:13:04;;;;;;;;;;;;;;;24.82;42.52;102063.28;4981620;28;20795;-73
2022/08/28 10:15:51;;;;;;;4.35;1.52;;;;;;;24.85;42.44;102064.81;4966043;28;20008;-74
2022/08/28 10:18:35;;;;;;;5.68;1.70;;;;;;;24.79;42.12;102051.06;4977232;28;20045;-71
2022/08/28 10:21:12;;;;;;;4.13;1.40;;;;;;;24.79;42.81;102055.56;4964491;28;20055;-74
2022/08/28 10:24:04;;;;;;;4.60;1.23;;;;;;;24.80;42.50;102046.56;4980762;28;20039;-76
2022/08/28 10:27:08;;;;;;;5.28;1.77;;;;;;;24.79;42.18;102042.22;4982737;28;20093;-77
2022/08/28 10:29:47;;;;;;;4.35;1.60;;;;;;;24.77;42.36;102045.03;4984835;28;20165;-75
2022/08/28 10:32:30;;;;;;;4.70;1.60;;;;;;;24.80;42.71;102055.44;4983151;28;20042;-73
2022/08/28 10:35:14;;;;;;;4.25;1.60;;;;;;;24.79;42.41;102048.41;4976762;28;20038;-74
2022/08/28 10:37:57;;;;;;;4.82;1.58;;;;;;;24.82;42.70;102049.94;4967563;28;20464;-76
2022/08/28 10:40:27;;;;;;;4.18;1.50;;;;;;;24.83;42.16;102056.94;4968671;28;20058;-72
2022/08/28 10:43:03;;;;;;;5.05;1.67;;;;;;;24.82;42.25;102047.28;4979011;28;20035;-71
2022/08/28 10:45:31;;;;;;;5.10;1.70;;;;;;;24.83;42.07;102054.28;4983597;28;20034;-72
2022/08/28 10:48:05;;;;;;;2.92;1.30;;;;;;;24.80;42.43;102054.56;4965379;28;20034;-72
2022/08/28 10:50:53;;;;;;;3.60;1.20;;;;;;;24.77;42.45;102038.88;4968625;28;20022;-76
2022/08/28 10:53:51;;;;;;;5.00;1.35;;;;;;;24.83;42.71;102053.44;4970228;28;20269;-75
2022/08/28 10:56:22;;;;;;;4.45;1.52;;;;;;;24.82;42.16;102041.97;4968286;28;20058;-75
2022/08/28 10:58:50;;;;;;;5.90;1.20;;;;;;;24.85;42.32;102047.00;4975762;28;20030;-74
2022/08/28 11:01:31;;;;;;;3.92;1.52;;;;;;;24.88;42.37;102043.19;4983999;28;20030;-74
2022/08/28 11:04:00;;;;;;;4.43;1.40;;;;;;;24.94;42.02;102047.97;4974970;28;20031;-74
2022/08/28 11:06:38;;;;;;;6.03;1.50;;;;;;;24.94;41.85;102045.31;4971609;28;20106;-73
2022/08/28 11:09:25;;;;;;;2.88;1.10;;;;;;;24.92;41.79;102045.44;4969888;28;20038;-77
2022/08/28 11:11:58;;;;;;;4.65;1.50;;;;;;;24.94;42.22;102050.63;4976260;28;20031;-77
2022/08/28 11:14:33;;;;;;;4.20;1.30;;;;;;;24.90;41.88;102050.09;4976157;28;20038;-77
2022/08/28 11:17:09;;;;;;;5.45;1.40;;;;;;;24.90;42.22;102043.94;4972296;28;20384;-77
2022/08/28 11:20:12;;;;;;;5.20;1.60;;;;;;;24.90;42.39;102050.09;4978615;28;20143;-75
2022/08/28 11:22:59;;;;;;;4.85;1.45;;;;;;;24.94;42.18;102050.63;4932193;29;20119;-75
2022/08/28 11:25:27;;;;;;;5.00;1.50;;;;;;;24.94;41.99;102043.50;4977768;28;20055;-76
2022/08/28 11:28:11;;;;;;;3.25;1.10;;;;;;;24.98;42.34;102050.22;4983242;28;20050;-76
2022/08/28 11:30:37;;;;;;;6.25;1.25;;;;;;;24.97;42.25;102050.38;4969542;28;20546;-77
2022/08/28 11:33:08;;;;;;;3.72;1.30;;;;;;;24.89;42.11;102032.41;4976539;28;20042;-75
2022/08/28 11:35:43;;;;;;;4.05;1.48;;;;;;;24.98;41.95;102047.56;4978235;28;20375;-76
2022/08/28 11:38:09;;;;;;;3.83;1.20;;;;;;;25.01;41.96;102049.09;4978041;28;20075;-75
2022/08/28 11:40:37;;;;;;;5.18;1.50;;;;;;;25.04;41.86;102042.63;4972297;28;20125;-77
2022/08/28 11:43:14;;;;;;;3.97;1.40;;;;;;;25.07;41.96;102051.22;4973776;28;20031;-76
2022/08/28 11:45:44;;;;;;;3.75;1.38;;;;;;;25.08;41.72;102057.38;4973767;28;20039;-72